createdAt,value
2022-12-23T00:00:37.451Z,117.45
2022-12-23T00:03:04.296Z,107.13
2022-12-23T00:05:37.360Z,100.57
2022-12-23T00:08:04.915Z,108.65
2022-12-23T00:10:31.691Z,107.87
2022-12-23T00:13:16.915Z,111.70
2022-12-23T00:15:43.636Z,92.65
2022-12-23T00:18:10.218Z,101.22
2022-12-23T00:20:36.867Z,103.25
2022-12-23T00:23:06.116Z,98.07
2022-12-23T00:25:43.972Z,98.28
2022-12-23T00:28:14.899Z,102.72
2022-12-23T00:30:48.678Z,110.18
2022-12-23T00:33:17.274Z,98.03
2022-12-23T00:35:45.255Z,110.28
2022-12-23T00:38:12.515Z,110.68
2022-12-23T00:40:57.737Z,112.60
2022-12-23T00:43:24.422Z,114.82
2022-12-23T00:45:51.071Z,106.68
2022-12-23T00:48:36.243Z,112.05
2022-12-23T00:51:02.855Z,154.93
2022-12-23T00:53:29.975Z,120.82
2022-12-23T00:55:56.662Z,119.30
2022-12-23T00:58:23.286Z,132.10
2022-12-23T01:01:08.553Z,134.95
2022-12-23T01:03:53.396Z,136.90
2022-12-23T01:06:19.990Z,121.97
2022-12-23T01:08:46.595Z,95.30
2022-12-23T01:11:13.246Z,90.65
2022-12-23T01:13:40.202Z,97.25
2022-12-23T01:16:13.495Z,99.17
2022-12-23T01:18:43.665Z,87.45
2022-12-23T01:21:10.886Z,103.18
2022-12-23T01:23:37.601Z,100.65
2022-12-23T01:26:06.593Z,99.55
2022-12-23T01:28:34.229Z,96.18
2022-12-23T01:31:02.530Z,106.05
2022-12-23T01:33:30.894Z,102.38
2022-12-23T01:36:06.758Z,100.30
2022-12-23T01:38:34.496Z,100.70
2022-12-23T01:41:01.146Z,92.07
2022-12-23T01:43:49.451Z,88.22
2022-12-23T01:46:16.497Z,98.03
2022-12-23T01:48:51.939Z,96.75
2022-12-23T01:51:25.847Z,86.57
2022-12-23T01:53:57.528Z,91.97
2022-12-23T01:56:39.977Z,86.50
2022-12-23T01:59:36.473Z,86.07
2022-12-23T02:02:22.226Z,86.63
2022-12-23T02:04:51.214Z,91.60
2022-12-23T02:07:36.656Z,87.50
2022-12-23T02:10:05.084Z,85.43
2022-12-23T02:12:46.930Z,79.53
2022-12-23T02:15:57.396Z,88.90
2022-12-23T02:18:44.659Z,82.60
2022-12-23T02:21:31.287Z,82.40
2022-12-23T02:24:13.271Z,85.13
2022-12-23T02:26:55.094Z,94.03
2022-12-23T02:29:48.075Z,85.35
2022-12-23T02:32:24.074Z,97.60
2022-12-23T02:35:21.799Z,97.10
2022-12-23T02:37:54.415Z,99.60
2022-12-23T02:40:34.745Z,87.75
2022-12-23T02:43:16.579Z,96.10
2022-12-23T02:45:54.145Z,107.15
2022-12-23T02:48:29.381Z,107.13
2022-12-23T02:50:58.619Z,99.95
2022-12-23T02:53:34.141Z,106.78
2022-12-23T02:56:02.374Z,101.05
2022-12-23T02:58:37.489Z,113.15
2022-12-23T03:01:06.780Z,105.32
2022-12-23T03:03:35.748Z,104.00
2022-12-23T03:06:08.075Z,111.55
2022-12-23T03:08:41.857Z,104.10
2022-12-23T03:11:12.032Z,153.80
2022-12-23T03:14:20.212Z,159.90
2022-12-23T03:17:03.635Z,124.47
2022-12-23T03:19:48.941Z,136.00
2022-12-23T03:22:26.296Z,124.13
2022-12-23T03:25:14.357Z,127.38
2022-12-23T03:28:19.766Z,120.75
2022-12-23T03:30:54.055Z,112.28
2022-12-23T03:33:29.530Z,116.22
2022-12-23T03:36:02.279Z,121.53
2022-12-23T03:38:32.933Z,112.60
2022-12-23T03:41:06.806Z,115.07
2022-12-23T03:43:48.341Z,114.22
2022-12-23T03:46:23.083Z,99.60
2022-12-23T03:48:55.464Z,112.50
2022-12-23T03:52:20.820Z,98.82
2022-12-23T03:54:58.046Z,86.57
2022-12-23T03:57:37.862Z,95.28
2022-12-23T04:00:05.066Z,77.43
2022-12-23T04:02:45.120Z,53.90
2022-12-23T04:05:14.663Z,73.10
2022-12-23T04:07:47.541Z,80.28
2022-12-23T04:10:14.872Z,71.28
2022-12-23T04:12:41.888Z,76.13
2022-12-23T04:15:12.888Z,83.97
2022-12-23T04:17:40.134Z,96.75
2022-12-23T04:20:07.635Z,95.55
2022-12-23T04:22:34.241Z,90.97
2022-12-23T04:25:00.830Z,94.72
2022-12-23T04:27:27.413Z,97.63
2022-12-23T04:29:53.972Z,104.10
2022-12-23T04:32:20.639Z,100.55
2022-12-23T04:34:47.208Z,96.22
2022-12-23T04:37:13.845Z,97.40
2022-12-23T04:39:40.469Z,107.85
2022-12-23T04:42:07.085Z,133.45
2022-12-23T04:44:33.673Z,129.38
2022-12-23T04:47:00.336Z,133.23
2022-12-23T04:49:26.910Z,129.40
2022-12-23T04:51:53.553Z,97.80
2022-12-23T04:54:20.199Z,112.65
2022-12-23T04:56:46.770Z,132.05
2022-12-23T04:59:13.502Z,115.20
2022-12-23T05:01:42.145Z,101.15
2022-12-23T05:04:10.160Z,103.82
2022-12-23T05:09:04.734Z,101.13
2022-12-23T05:11:33.315Z,96.80
2022-12-23T05:14:02.918Z,74.88
2022-12-23T05:16:31.308Z,118.17
2022-12-23T05:18:58.342Z,106.57
2022-12-23T05:21:24.925Z,94.60
2022-12-23T05:23:51.882Z,130.82
2022-12-23T05:26:18.774Z,165.97
2022-12-23T05:28:45.796Z,181.93
2022-12-23T05:31:13.761Z,185.25
2022-12-23T05:33:41.186Z,223.52
2022-12-23T05:36:08.028Z,166.05
2022-12-23T05:38:34.650Z,163.30
2022-12-23T05:41:02.456Z,120.97
2022-12-23T05:48:24.773Z,227.68
2022-12-23T05:50:52.858Z,172.07
2022-12-23T05:55:50.344Z,112.10
2022-12-23T05:58:17.222Z,117.78
2022-12-23T06:00:44.094Z,82.18
2022-12-23T06:03:12.076Z,109.20
2022-12-23T06:05:40.229Z,93.13
2022-12-23T06:08:06.855Z,102.13
2022-12-23T06:10:33.465Z,87.00
2022-12-23T06:13:00.113Z,95.25
2022-12-23T06:15:26.696Z,98.88
2022-12-23T06:17:53.377Z,106.35
2022-12-23T06:20:21.143Z,100.35
2022-12-23T06:22:48.000Z,99.07
2022-12-23T06:25:14.640Z,122.65
2022-12-23T06:27:41.239Z,116.57
2022-12-23T06:30:08.429Z,115.60
2022-12-23T06:32:38.544Z,117.97
2022-12-23T06:35:07.135Z,119.18
2022-12-23T06:37:34.312Z,101.65
2022-12-23T06:40:00.941Z,107.60
2022-12-23T06:42:27.712Z,104.40
2022-12-23T06:44:54.328Z,108.07
2022-12-23T06:47:21.043Z,135.50
2022-12-23T06:49:47.643Z,151.25
2022-12-23T06:52:14.227Z,137.73
2022-12-23T06:54:40.937Z,139.90
2022-12-23T06:57:07.663Z,154.80
2022-12-23T06:59:34.273Z,120.70
2022-12-23T07:02:01.145Z,146.55
2022-12-23T07:04:27.915Z,197.60
2022-12-23T07:06:54.585Z,148.07
2022-12-23T07:09:21.201Z,125.93
2022-12-23T07:11:47.857Z,150.60
2022-12-23T07:14:14.491Z,158.38
2022-12-23T07:16:41.159Z,174.48
2022-12-23T07:19:08.027Z,255.05
2022-12-23T07:21:34.788Z,258.38
2022-12-23T07:24:01.416Z,195.15
2022-12-23T07:26:28.645Z,189.90
2022-12-23T07:28:55.228Z,185.90
2022-12-23T07:31:21.992Z,236.35
2022-12-23T07:33:48.880Z,230.73
2022-12-23T07:36:15.461Z,219.07
2022-12-23T07:38:42.078Z,215.52
2022-12-23T07:41:08.680Z,231.27
2022-12-23T07:43:35.346Z,235.50
2022-12-23T07:46:09.855Z,205.32
2022-12-23T07:48:36.665Z,193.90
2022-12-23T07:51:04.121Z,176.45
2022-12-23T07:53:31.280Z,146.82
2022-12-23T07:55:58.040Z,147.50
2022-12-23T07:58:25.270Z,130.05
2022-12-23T08:00:58.748Z,138.68
2022-12-23T08:03:25.508Z,130.13
2022-12-23T08:06:03.196Z,118.70
2022-12-23T08:08:30.072Z,129.43
2022-12-23T08:11:03.780Z,126.38
2022-12-23T08:13:33.761Z,131.65
2022-12-23T08:16:01.723Z,155.63
2022-12-23T08:20:58.664Z,155.80
2022-12-23T08:23:26.705Z,144.60
2022-12-23T08:28:26.482Z,158.65
2022-12-23T08:30:53.338Z,151.65
2022-12-23T08:33:20.068Z,158.63
2022-12-23T08:35:46.747Z,142.23
2022-12-23T08:38:13.320Z,141.25
2022-12-23T08:40:40.554Z,138.25
2022-12-23T08:43:07.945Z,133.63
2022-12-23T08:45:38.597Z,160.60
2022-12-23T08:48:08.142Z,182.75
2022-12-23T08:54:15.877Z,133.52
2022-12-23T08:56:43.039Z,183.32
2022-12-23T08:59:19.309Z,221.27
2022-12-23T09:01:47.454Z,186.77
2022-12-23T09:04:14.264Z,205.48
2022-12-23T09:06:42.295Z,217.52
2022-12-23T09:11:37.389Z,184.68
2022-12-23T09:14:05.108Z,187.30
2022-12-23T09:16:32.300Z,202.38
2022-12-23T09:18:59.200Z,239.52
2022-12-23T09:21:26.268Z,243.95
2022-12-23T09:23:53.014Z,225.27
2022-12-23T09:26:22.850Z,211.93
2022-12-23T09:28:49.760Z,191.43
2022-12-23T09:31:17.041Z,182.77
2022-12-23T09:33:48.160Z,199.48
2022-12-23T09:36:15.378Z,206.60
2022-12-23T09:38:42.275Z,154.75
2022-12-23T09:41:18.082Z,218.95
2022-12-23T09:44:07.879Z,204.50
2022-12-23T09:46:38.644Z,190.65
2022-12-23T09:49:11.568Z,191.80
2022-12-23T09:51:38.531Z,162.18
2022-12-23T09:54:17.565Z,170.52
2022-12-23T09:56:53.422Z,180.68
2022-12-23T09:59:20.188Z,159.05
2022-12-23T10:01:58.224Z,177.43
2022-12-23T10:04:40.883Z,154.88
2022-12-23T10:07:34.225Z,163.05
2022-12-23T10:10:13.809Z,133.75
2022-12-23T10:12:48.239Z,131.85
2022-12-23T10:15:31.120Z,117.68
2022-12-23T10:18:04.425Z,131.45
2022-12-23T10:20:47.386Z,117.95
2022-12-23T10:23:18.052Z,112.65
2022-12-23T10:25:51.470Z,100.78
2022-12-23T10:28:19.217Z,93.90
2022-12-23T10:33:59.453Z,90.88
2022-12-23T10:37:05.232Z,90.05
2022-12-23T10:39:42.634Z,90.63
2022-12-23T10:42:22.671Z,90.65
2022-12-23T10:45:01.061Z,81.65
2022-12-23T10:47:39.814Z,82.13
2022-12-23T10:52:59.877Z,68.78
2022-12-23T10:55:33.867Z,60.35
2022-12-23T10:58:18.494Z,73.00
2022-12-23T11:00:59.926Z,62.90
2022-12-23T11:03:42.710Z,60.00
2022-12-23T11:06:11.506Z,60.95
2022-12-23T11:08:39.871Z,53.47
2022-12-23T11:11:07.308Z,50.88
2022-12-23T11:13:43.379Z,61.90
2022-12-23T11:16:19.270Z,44.03
2022-12-23T11:18:57.056Z,44.88
2022-12-23T11:21:23.877Z,53.80
2022-12-23T11:24:16.614Z,35.80
2022-12-23T11:26:45.100Z,45.08
2022-12-23T11:29:28.064Z,43.60
2022-12-23T11:31:56.336Z,38.88
2022-12-23T11:34:25.509Z,45.92
2022-12-23T11:37:03.708Z,45.53
2022-12-23T11:39:36.737Z,48.33
2022-12-23T11:42:17.584Z,55.17
2022-12-23T11:44:48.657Z,49.17
2022-12-23T11:47:41.384Z,47.65
2022-12-23T11:50:31.035Z,55.45
2022-12-23T11:55:32.946Z,41.40
2022-12-23T11:58:01.680Z,49.17
2022-12-23T12:00:42.972Z,46.60
2022-12-23T12:03:18.947Z,49.35
2022-12-23T12:05:59.411Z,54.85
2022-12-23T12:08:33.279Z,43.42
2022-12-23T12:11:05.898Z,41.35
2022-12-23T12:13:36.585Z,51.03
2022-12-23T12:16:06.220Z,49.53
2022-12-23T12:18:34.943Z,40.88
2022-12-23T12:21:09.992Z,48.45
2022-12-23T12:24:14.839Z,42.75
2022-12-23T12:26:44.421Z,52.10
2022-12-23T12:29:26.640Z,67.50
2022-12-23T12:31:56.976Z,50.42
2022-12-23T12:34:28.605Z,44.85
2022-12-23T12:37:02.936Z,41.28
2022-12-23T12:39:53.457Z,38.47
2022-12-23T12:42:23.017Z,47.10
2022-12-23T12:44:58.507Z,38.83
2022-12-23T12:50:24.525Z,40.92
2022-12-23T12:52:56.850Z,41.75
2022-12-23T12:55:29.718Z,38.28
2022-12-23T12:57:56.528Z,35.85
2022-12-23T13:00:25.238Z,36.67
2022-12-23T13:03:19.768Z,33.33
2022-12-23T13:05:59.988Z,39.53
2022-12-23T13:08:49.455Z,33.13
2022-12-23T13:11:28.781Z,42.33
2022-12-23T13:14:13.220Z,39.72
2022-12-23T13:16:48.647Z,35.38
2022-12-23T13:19:21.210Z,38.35
2022-12-23T13:21:59.116Z,48.95
2022-12-23T13:24:38.409Z,34.77
2022-12-23T13:27:11.565Z,33.03
2022-12-23T13:29:58.529Z,35.53
2022-12-23T13:32:47.738Z,42.33
2022-12-23T13:35:42.496Z,46.40
2022-12-23T13:38:25.715Z,44.75
2022-12-23T13:41:19.155Z,44.80
2022-12-23T13:43:59.500Z,37.90
2022-12-23T13:46:44.534Z,38.38
2022-12-23T13:49:16.979Z,39.47
2022-12-23T13:51:54.672Z,39.30
2022-12-23T13:54:56.492Z,38.63
2022-12-23T13:57:44.844Z,47.03
2022-12-23T14:00:17.636Z,57.67
2022-12-23T14:02:50.885Z,53.30
2022-12-23T14:05:30.084Z,52.55
2022-12-23T14:08:00.193Z,52.28
2022-12-23T14:10:27.625Z,74.97
2022-12-23T14:13:01.859Z,84.78
2022-12-23T14:15:54.562Z,70.57
2022-12-23T14:18:43.185Z,60.90
2022-12-23T14:21:32.184Z,87.07
2022-12-23T14:24:16.043Z,77.28
2022-12-23T14:27:03.749Z,70.05
2022-12-23T14:29:46.780Z,81.07
2022-12-23T14:32:28.046Z,85.35
2022-12-23T14:35:06.105Z,68.10
2022-12-23T14:37:36.362Z,69.25
2022-12-23T14:40:37.474Z,77.93
2022-12-23T14:43:22.961Z,80.93
2022-12-23T14:45:51.148Z,105.85
2022-12-23T14:48:35.692Z,87.97
2022-12-23T14:51:08.379Z,133.80
2022-12-23T14:53:37.950Z,93.05
2022-12-23T14:56:10.975Z,93.70
2022-12-23T14:58:41.435Z,94.10
2022-12-23T15:01:16.888Z,94.78
2022-12-23T15:04:01.287Z,84.03
2022-12-23T15:06:47.526Z,92.03
2022-12-23T15:09:24.161Z,89.07
2022-12-23T15:11:51.828Z,95.13
2022-12-23T15:14:34.243Z,110.82
2022-12-23T15:17:15.239Z,109.13
2022-12-23T15:19:45.424Z,146.43
2022-12-23T15:22:21.223Z,147.07
2022-12-23T15:24:52.210Z,118.72
2022-12-23T15:27:29.291Z,124.97
2022-12-23T15:29:56.893Z,117.22
2022-12-23T15:32:25.289Z,119.25
2022-12-23T15:34:54.940Z,153.82
2022-12-23T15:37:32.584Z,166.35
2022-12-23T15:40:09.464Z,267.55
2022-12-23T15:42:38.691Z,263.30
2022-12-23T15:45:36.616Z,231.57
2022-12-23T15:48:05.378Z,153.30
2022-12-23T15:50:41.558Z,139.70
2022-12-23T15:53:10.306Z,187.38
2022-12-23T15:55:41.347Z,192.63
2022-12-23T15:58:08.666Z,239.32
2022-12-23T16:00:50.773Z,328.30
2022-12-23T16:03:39.249Z,342.77
2022-12-23T16:06:10.052Z,372.27
2022-12-23T16:08:38.035Z,480.33
2022-12-23T16:11:21.253Z,429.67
2022-12-23T16:14:25.242Z,306.85
2022-12-23T16:16:52.664Z,346.55
2022-12-23T16:19:42.917Z,354.77
2022-12-23T16:22:33.551Z,307.42
2022-12-23T16:25:24.642Z,326.63
2022-12-23T16:28:27.976Z,288.85
2022-12-23T16:30:57.620Z,309.75
2022-12-23T16:33:39.796Z,226.82
2022-12-23T16:36:32.065Z,233.70
2022-12-23T16:39:21.927Z,246.00
2022-12-23T16:41:49.789Z,232.68
2022-12-23T16:44:16.795Z,228.40
2022-12-23T16:46:46.041Z,232.85
2022-12-23T16:49:18.695Z,250.57
2022-12-23T16:51:45.764Z,231.02
2022-12-23T16:54:18.695Z,219.32
2022-12-23T16:56:49.976Z,206.85
2022-12-23T16:59:16.927Z,211.00
2022-12-23T17:01:46.089Z,242.27
2022-12-23T17:04:14.592Z,202.40
2022-12-23T17:06:41.857Z,210.82
2022-12-23T17:09:10.211Z,189.85
2022-12-23T17:11:47.955Z,168.18
2022-12-23T17:14:20.821Z,312.23
2022-12-23T17:16:48.291Z,275.55
2022-12-23T17:19:15.396Z,230.52
2022-12-23T17:21:44.671Z,223.68
2022-12-23T17:24:17.384Z,183.90
2022-12-23T17:26:44.242Z,160.57
2022-12-23T17:29:12.881Z,156.25
2022-12-23T17:31:41.171Z,183.38
2022-12-23T17:34:11.859Z,160.50
2022-12-23T17:36:41.935Z,287.95
2022-12-23T17:39:11.469Z,247.60
2022-12-23T17:41:39.871Z,180.25
2022-12-23T17:44:07.375Z,139.52
2022-12-23T17:46:34.488Z,190.88
2022-12-23T17:49:01.214Z,169.50
2022-12-23T17:51:27.914Z,177.57
2022-12-23T17:53:57.793Z,210.95
2022-12-23T17:56:27.678Z,239.82
2022-12-23T17:58:54.501Z,251.25
2022-12-23T18:01:30.152Z,221.10
2022-12-23T18:03:58.021Z,245.45
2022-12-23T18:06:27.406Z,209.68
2022-12-23T18:08:54.212Z,209.77
2022-12-23T18:11:27.481Z,192.13
2022-12-23T18:13:54.622Z,180.30
2022-12-23T18:16:21.315Z,171.57
2022-12-23T18:18:48.621Z,170.23
2022-12-23T18:21:22.615Z,159.15
2022-12-23T18:23:49.472Z,171.98
2022-12-23T18:26:16.191Z,183.93
2022-12-23T18:28:44.036Z,218.55
2022-12-23T18:31:20.279Z,289.10
2022-12-23T18:33:47.711Z,367.85
2022-12-23T18:36:30.375Z,226.85
2022-12-23T18:38:57.742Z,196.13
2022-12-23T18:41:25.543Z,251.68
2022-12-23T18:43:53.428Z,214.40
2022-12-23T18:46:20.671Z,176.52
2022-12-23T18:48:48.288Z,183.02
2022-12-23T18:51:17.125Z,152.50
2022-12-23T18:53:43.858Z,158.18
2022-12-23T18:56:15.215Z,191.95
2022-12-23T18:58:42.246Z,199.27
2022-12-23T19:01:12.962Z,160.93
2022-12-23T19:03:39.911Z,151.43
2022-12-23T19:06:08.942Z,136.95
2022-12-23T19:08:37.286Z,164.85
2022-12-23T19:11:14.338Z,175.02
2022-12-23T19:13:41.280Z,155.98
2022-12-23T19:16:08.415Z,155.32
2022-12-23T19:18:35.093Z,162.83
2022-12-23T19:21:04.544Z,154.27
2022-12-23T19:23:31.418Z,144.98
2022-12-23T19:25:58.064Z,130.43
2022-12-23T19:28:26.123Z,149.73
2022-12-23T19:33:19.348Z,140.45
2022-12-23T19:35:46.695Z,153.07
2022-12-23T19:38:13.377Z,146.88
2022-12-23T19:40:40.505Z,186.90
2022-12-23T19:43:07.342Z,214.53
2022-12-23T19:45:34.305Z,205.50
2022-12-23T19:48:01.010Z,228.65
2022-12-23T19:50:27.870Z,194.40
2022-12-23T19:52:56.583Z,245.15
2022-12-23T19:55:23.602Z,262.23
2022-12-23T19:57:50.526Z,224.10
2022-12-23T20:00:17.228Z,216.93
2022-12-23T20:02:43.935Z,172.82
2022-12-23T20:05:10.607Z,194.90
2022-12-23T20:07:37.791Z,183.25
2022-12-23T20:10:05.739Z,181.18
2022-12-23T20:12:32.661Z,183.63
2022-12-23T20:14:59.456Z,199.57
2022-12-23T20:17:26.089Z,215.50
2022-12-23T20:19:52.706Z,235.02
2022-12-23T20:22:19.326Z,212.40
2022-12-23T20:24:46.070Z,233.55
2022-12-23T20:27:15.582Z,221.82
2022-12-23T20:29:43.948Z,244.00
2022-12-23T20:32:10.726Z,224.55
2022-12-23T20:34:39.895Z,253.35
2022-12-23T20:37:07.422Z,390.73
2022-12-23T20:39:35.032Z,382.90
2022-12-23T20:42:01.794Z,256.30
2022-12-23T20:44:36.862Z,242.50
2022-12-23T20:47:07.884Z,210.38
2022-12-23T20:49:34.526Z,227.52
2022-12-23T20:52:01.573Z,218.85
2022-12-23T20:54:33.110Z,205.20
2022-12-23T20:57:02.624Z,210.60
2022-12-23T20:59:29.378Z,193.32
2022-12-23T21:01:59.206Z,192.23
2022-12-23T21:04:26.292Z,170.55
2022-12-23T21:06:52.967Z,197.35
2022-12-23T21:09:19.633Z,245.40
2022-12-23T21:11:48.731Z,228.10
2022-12-23T21:14:15.913Z,241.98
2022-12-23T21:16:43.447Z,255.20
2022-12-23T21:19:18.137Z,240.15
2022-12-23T21:21:46.053Z,236.02
2022-12-23T21:24:13.149Z,222.98
2022-12-23T21:26:40.368Z,260.97
2022-12-23T21:29:08.632Z,221.38
2022-12-23T21:31:38.123Z,212.48
2022-12-23T21:34:06.150Z,192.32
2022-12-23T21:39:01.132Z,203.98
2022-12-23T21:41:34.997Z,194.18
2022-12-23T21:44:02.263Z,215.13
2022-12-23T21:46:29.685Z,227.90
2022-12-23T21:48:58.084Z,253.45
2022-12-23T21:51:38.570Z,229.38
2022-12-23T21:54:07.361Z,243.95
2022-12-23T21:56:34.407Z,282.23
2022-12-23T21:59:07.780Z,298.85
2022-12-23T22:01:34.797Z,322.33
2022-12-23T22:04:01.660Z,285.15
2022-12-23T22:06:31.910Z,308.70
2022-12-23T22:08:59.171Z,302.08
2022-12-23T22:11:29.265Z,297.67
2022-12-23T22:13:58.008Z,279.05
2022-12-23T22:16:26.260Z,278.27
2022-12-23T22:18:53.707Z,253.45
2022-12-23T22:21:22.498Z,233.05
2022-12-23T22:23:50.720Z,183.95
2022-12-23T22:26:24.567Z,175.10
2022-12-23T22:28:56.838Z,169.90
2022-12-23T22:31:37.898Z,236.35
2022-12-23T22:34:05.897Z,102.15
2022-12-23T22:39:01.360Z,119.20
2022-12-23T22:41:30.014Z,127.55
2022-12-23T22:43:57.664Z,121.55
2022-12-23T22:46:25.092Z,117.65
2022-12-23T22:48:52.468Z,114.72
2022-12-23T22:53:48.912Z,127.70
2022-12-23T22:56:17.658Z,116.82
2022-12-23T22:58:44.303Z,125.13
2022-12-23T23:01:22.496Z,155.30
2022-12-23T23:03:51.209Z,148.48
2022-12-23T23:06:18.826Z,151.65
2022-12-23T23:08:45.534Z,129.02
2022-12-23T23:11:12.206Z,139.70
2022-12-23T23:13:38.980Z,148.60
2022-12-23T23:16:06.000Z,127.07
2022-12-23T23:18:32.805Z,134.33
2022-12-23T23:20:59.576Z,180.38
2022-12-23T23:23:26.300Z,209.15
2022-12-23T23:25:53.121Z,228.55
2022-12-23T23:28:19.801Z,171.52
2022-12-23T23:30:46.788Z,183.63
2022-12-23T23:33:13.834Z,183.52
2022-12-23T23:35:40.451Z,192.23
2022-12-23T23:38:07.695Z,232.80
2022-12-23T23:40:34.356Z,225.02
2022-12-23T23:43:01.061Z,192.68
2022-12-23T23:45:28.116Z,169.75
2022-12-23T23:47:55.312Z,183.23
2022-12-23T23:50:22.324Z,164.50
2022-12-23T23:52:49.110Z,171.02
2022-12-23T23:55:16.108Z,193.48
2022-12-23T23:57:42.780Z,137.50
